Macungie, Pennsylvania
Current Conditions -  °F | °C
As of 1:55 AM on Monday 24 Nov 2014 (Local Time) from KXLL Reporting Station
Moderate Rain Moderate Rain  
Wind Chill: 54°   Ceiling: 800
Heat Index: 54°   Visibility: 7mi
Dew Point: 52°   Wind: 13mph
Humidity: 94%   Direction: 120°ESE
Pressure: 29.78"   Gusts: 20mph
Location:  40.52°N, 75.56°W
Report Text: KXLL 240655Z AUTO 12011G17KT 7SM RA BKN008 BKN012 OVC027 12/11 A2978 RMK AO2 P0011
Loading
Personal Weather Stations






























Interactive Weather Map New forecast layout! Learn more

10-Day Weather Forecast

Advertisements
Track Severe Weather on mobile